Time;durP1;ratioP1;P1;durP2;ratioP2;P2;SDS_P1;SDS_P2;PMS_P1;PMS_P2;Temp;Humidity;BMP_temperature;BMP_pressure;BME280_temperature;BME280_humidity;BME280_pressure;Samples;Min_cycle;Max_cycle;Signal;HPM_P1;HPM_P2
2023/05/12 00:01:23;;;;;;;1.45;0.70;;;;;;;19.80;51.22;99461.59;4934228;29;20058;-70
2023/05/12 00:03:48;;;;;;;1.20;0.47;;;;;;;19.79;51.25;99459.88;4917020;29;20030;-71
2023/05/12 00:06:14;;;;;;;1.48;0.73;;;;;;;19.79;51.40;99462.53;4933834;28;20107;-70
2023/05/12 00:08:39;;;;;;;1.02;0.55;;;;;;;19.80;51.12;99456.31;4933536;28;20044;-70
2023/05/12 00:11:04;;;;;;;1.55;0.55;;;;;;;19.77;51.19;99456.50;4934169;28;20031;-70
2023/05/12 00:13:30;;;;;;;1.30;0.40;;;;;;;19.78;51.23;99458.19;4933842;28;20452;-71
2023/05/12 00:15:57;;;;;;;2.35;0.82;;;;;;;19.77;51.38;99456.50;4928065;28;20058;-71
2023/05/12 00:18:23;;;;;;;1.75;0.70;;;;;;;19.77;51.18;99452.97;4915034;29;20107;-70
2023/05/12 00:20:49;;;;;;;2.25;0.60;;;;;;;19.75;51.46;99455.69;4914642;29;20032;-71
2023/05/12 00:23:14;;;;;;;2.20;0.60;;;;;;;19.76;51.36;99448.63;4914529;29;20028;-70
2023/05/12 00:25:39;;;;;;;1.25;0.40;;;;;;;19.72;51.20;99445.28;4914775;29;20536;-70
2023/05/12 00:28:05;;;;;;;3.38;0.65;;;;;;;19.72;51.12;99443.50;4914688;29;20631;-70
2023/05/12 00:30:30;;;;;;;1.98;0.63;;;;;;;19.73;51.40;99447.00;4915210;29;20141;-70
2023/05/12 00:32:56;;;;;;;2.25;0.50;;;;;;;19.72;51.28;99446.13;4933772;28;20032;-71
2023/05/12 00:35:21;;;;;;;1.23;0.60;;;;;;;19.72;51.39;99437.34;4933601;28;20396;-71
2023/05/12 00:37:47;;;;;;;1.65;0.60;;;;;;;19.70;51.30;99433.91;4933137;28;20023;-70
2023/05/12 00:40:12;;;;;;;1.00;0.38;;;;;;;19.70;51.32;99434.78;4933441;28;20031;-71
2023/05/12 00:42:38;;;;;;;1.90;0.52;;;;;;;19.70;51.23;99433.91;4921180;29;20040;-70
2023/05/12 00:45:04;;;;;;;1.73;0.70;;;;;;;19.71;51.35;99428.53;4913263;29;20478;-69
2023/05/12 00:47:29;;;;;;;0.65;0.22;;;;;;;19.70;51.37;99428.63;4914399;29;20126;-70
2023/05/12 00:49:55;;;;;;;0.95;0.40;;;;;;;19.72;51.15;99432.06;4921486;29;20438;-71
2023/05/12 00:52:21;;;;;;;1.73;0.55;;;;;;;19.67;51.28;99431.47;4932899;29;20043;-70
2023/05/12 00:54:47;;;;;;;1.83;0.60;;;;;;;19.69;51.25;99429.56;4933137;28;20135;-71
2023/05/12 00:57:13;;;;;;;1.65;0.55;;;;;;;19.66;51.30;99427.94;4933246;29;20066;-70
2023/05/12 00:59:38;;;;;;;2.03;0.60;;;;;;;19.67;51.38;99423.53;4933286;29;20059;-71
2023/05/12 01:02:04;;;;;;;1.55;0.55;;;;;;;19.66;51.30;99422.66;4933337;29;20036;-71
2023/05/12 01:04:31;;;;;;;1.90;0.68;;;;;;;19.64;51.59;99407.78;4933106;29;20485;-70
2023/05/12 01:07:14;;;;;;;1.27;0.50;;;;;;;19.65;51.21;99414.78;4932195;29;20094;-71
2023/05/12 01:09:40;;;;;;;1.13;0.40;;;;;;;19.65;51.38;99412.13;4933013;29;20473;-71
2023/05/12 01:12:05;;;;;;;1.48;0.50;;;;;;;19.63;51.38;99412.25;4915991;29;20039;-70
2023/05/12 01:14:31;;;;;;;1.15;0.60;;;;;;;19.63;51.20;99406.09;4933100;29;20035;-70
2023/05/12 01:17:00;;;;;;;0.70;0.50;;;;;;;19.63;51.38;99403.44;4932934;29;20039;-71
2023/05/12 01:19:39;;;;;;;0.90;0.52;;;;;;;19.63;51.53;99408.75;4933014;29;20039;-70
2023/05/12 01:22:05;;;;;;;1.23;0.50;;;;;;;19.63;51.31;99399.03;4932640;29;20460;-70
2023/05/12 01:24:33;;;;;;;1.58;0.60;;;;;;;19.61;51.42;99403.53;4932973;29;20031;-70
2023/05/12 01:26:59;;;;;;;1.02;0.52;;;;;;;19.61;51.42;99408.81;4932548;29;20482;-70
2023/05/12 01:29:27;;;;;;;0.60;0.38;;;;;;;19.58;51.37;99404.56;4932772;29;20831;-70
2023/05/12 01:31:53;;;;;;;0.68;0.30;;;;;;;19.60;51.32;99409.75;4932489;28;20397;-70
2023/05/12 01:34:19;;;;;;;1.50;0.40;;;;;;;19.62;51.18;99414.97;4916115;29;20039;-70
2023/05/12 01:36:45;;;;;;;1.60;0.60;;;;;;;19.60;51.40;99409.75;4913401;29;20021;-70
2023/05/12 01:39:11;;;;;;;1.48;0.60;;;;;;;19.57;51.29;99413.44;4913554;29;20047;-71
2023/05/12 01:41:37;;;;;;;1.20;0.52;;;;;;;19.58;51.35;99404.56;4928737;28;20170;-70
2023/05/12 01:44:02;;;;;;;1.38;0.60;;;;;;;19.56;51.39;99403.78;4927403;29;20103;-69
2023/05/12 01:46:28;;;;;;;2.00;0.55;;;;;;;19.57;51.31;99402.84;4913655;29;20024;-71
2023/05/12 01:48:53;;;;;;;1.30;0.40;;;;;;;19.55;51.65;99394.16;4913568;29;20039;-71
2023/05/12 01:51:19;;;;;;;1.88;0.77;;;;;;;19.56;51.60;99392.34;4931099;29;20032;-71
2023/05/12 01:53:44;;;;;;;0.98;0.52;;;;;;;19.56;51.32;99387.03;4932704;28;20043;-70
2023/05/12 01:56:10;;;;;;;1.15;0.43;;;;;;;19.57;51.36;99386.97;4930358;29;20094;-70
2023/05/12 01:58:35;;;;;;;0.95;0.40;;;;;;;19.55;51.58;99391.50;4932243;29;20543;-70
2023/05/12 02:01:00;;;;;;;1.25;0.40;;;;;;;19.53;51.59;99385.44;4932313;29;20028;-70
2023/05/12 02:03:26;;;;;;;1.00;0.45;;;;;;;19.54;51.37;99386.28;4932338;29;20478;-71
2023/05/12 02:05:51;;;;;;;0.98;0.50;;;;;;;19.50;51.67;99390.91;4932033;29;20031;-70
2023/05/12 02:08:16;;;;;;;1.75;0.40;;;;;;;19.53;51.65;99385.44;4932244;29;20047;-70
2023/05/12 02:10:42;;;;;;;1.23;0.32;;;;;;;19.52;51.40;99378.44;4915314;28;20089;-71
2023/05/12 02:13:07;;;;;;;0.50;0.40;;;;;;;19.50;51.85;99379.44;4932382;29;20363;-70
2023/05/12 02:15:33;;;;;;;1.02;0.40;;;;;;;19.52;51.54;99369.66;4932137;29;20016;-68
2023/05/12 02:17:58;;;;;;;1.17;0.40;;;;;;;19.49;51.56;99375.97;4930917;28;20055;-71
2023/05/12 02:20:24;;;;;;;1.45;0.32;;;;;;;19.49;51.64;99373.31;4919839;29;20107;-70
2023/05/12 02:22:49;;;;;;;1.15;0.40;;;;;;;19.49;51.61;99364.50;4913084;29;20528;-70
2023/05/12 02:25:14;;;;;;;0.95;0.52;;;;;;;19.49;51.52;99377.75;4913043;29;20031;-71
2023/05/12 02:27:40;;;;;;;0.93;0.50;;;;;;;19.50;51.71;99369.72;4912988;29;20119;-70
2023/05/12 02:30:06;;;;;;;1.33;0.50;;;;;;;19.49;51.47;99365.38;4922565;28;20020;-70
2023/05/12 02:32:31;;;;;;;0.82;0.30;;;;;;;19.48;51.69;99371.63;4931845;28;20508;-71
2023/05/12 02:34:57;;;;;;;0.98;0.40;;;;;;;19.48;51.59;99376.91;4931610;28;20050;-70
2023/05/12 02:37:22;;;;;;;0.98;0.35;;;;;;;19.48;51.74;99379.56;4931908;28;20094;-70
2023/05/12 02:39:48;;;;;;;0.75;0.35;;;;;;;19.47;51.73;99375.22;4924843;29;20024;-70
2023/05/12 02:42:13;;;;;;;2.55;0.50;;;;;;;19.47;51.50;99372.56;4912936;29;20024;-72
2023/05/12 02:44:38;;;;;;;0.95;0.40;;;;;;;19.48;51.37;99378.69;4912771;29;20111;-70
2023/05/12 02:47:04;;;;;;;1.13;0.43;;;;;;;19.46;51.64;99381.41;4912955;29;20033;-71
2023/05/12 02:49:31;;;;;;;1.00;0.40;;;;;;;19.44;51.65;99376.22;4917040;29;20572;-71
2023/05/12 02:51:56;;;;;;;0.73;0.40;;;;;;;19.42;51.62;99370.16;4931537;29;20024;-71
2023/05/12 02:54:22;;;;;;;1.52;0.45;;;;;;;19.43;51.48;99381.59;4919086;29;20070;-70
2023/05/12 02:56:47;;;;;;;1.38;0.50;;;;;;;19.41;51.76;99365.81;4931608;29;20429;-71
2023/05/12 02:59:13;;;;;;;2.97;0.75;;;;;;;19.41;51.55;99367.59;4931609;29;20077;-69
2023/05/12 03:01:38;;;;;;;0.77;0.40;;;;;;;19.41;51.52;99360.50;4931764;29;20028;-70
2023/05/12 03:04:03;;;;;;;1.08;0.40;;;;;;;19.41;51.73;99359.66;4929926;29;20032;-70
2023/05/12 03:06:29;;;;;;;0.80;0.40;;;;;;;19.40;51.73;99363.25;4931636;29;20038;-70
2023/05/12 03:08:54;;;;;;;1.40;0.50;;;;;;;19.39;51.64;99359.75;4931484;29;20054;-69
2023/05/12 03:11:21;;;;;;;1.02;0.40;;;;;;;19.38;51.58;99355.41;4931405;28;20605;-70
2023/05/12 03:13:47;;;;;;;1.40;0.50;;;;;;;19.40;51.73;99357.94;4931535;28;20035;-70
2023/05/12 03:16:12;;;;;;;0.93;0.40;;;;;;;19.40;51.58;99350.00;4931308;28;20382;-70
2023/05/12 03:18:38;;;;;;;0.80;0.40;;;;;;;19.39;51.69;99353.59;4931184;29;20516;-71
2023/05/12 03:21:03;;;;;;;0.75;0.30;;;;;;;19.37;51.56;99351.03;4915128;29;20032;-70
2023/05/12 03:23:29;;;;;;;3.13;0.93;;;;;;;19.37;51.55;99358.13;4912386;29;20033;-71
2023/05/12 03:25:54;;;;;;;0.80;0.43;;;;;;;19.32;51.59;99346.00;4912291;29;20036;-71
2023/05/12 03:28:21;;;;;;;1.05;0.50;;;;;;;19.32;51.93;99339.84;4912376;29;20036;-70
2023/05/12 03:30:47;;;;;;;1.08;0.47;;;;;;;19.34;51.52;99347.72;4925517;28;20024;-71
2023/05/12 03:33:13;;;;;;;0.90;0.47;;;;;;;19.32;51.59;99351.31;4934162;28;20030;-71
2023/05/12 03:35:38;;;;;;;1.58;0.50;;;;;;;19.34;51.63;99342.41;4934422;28;20028;-71
2023/05/12 03:38:04;;;;;;;1.50;0.40;;;;;;;19.34;51.68;99339.78;4933917;28;20027;-71
2023/05/12 03:40:29;;;;;;;1.17;0.30;;;;;;;19.32;51.61;99340.72;4926506;29;20035;-70
2023/05/12 03:42:55;;;;;;;1.83;0.80;;;;;;;19.30;51.70;99337.31;4915577;29;20028;-70
2023/05/12 03:45:20;;;;;;;1.38;0.50;;;;;;;19.31;51.76;99339.00;4915535;29;20050;-70
2023/05/12 03:47:46;;;;;;;1.33;0.50;;;;;;;19.30;51.68;99332.03;4915032;29;20396;-70
2023/05/12 03:50:11;;;;;;;0.90;0.40;;;;;;;19.32;51.86;99339.84;4922702;29;20052;-70
2023/05/12 03:52:39;;;;;;;1.33;0.52;;;;;;;19.28;51.84;99335.69;4934338;28;20024;-70
2023/05/12 03:55:06;;;;;;;0.85;0.45;;;;;;;19.29;51.80;99338.25;4933942;28;20075;-70
2023/05/12 03:57:33;;;;;;;2.47;0.45;;;;;;;19.29;51.82;99335.63;4933633;29;20063;-71
2023/05/12 03:59:59;;;;;;;2.42;0.50;;;;;;;19.29;51.70;99329.47;4933576;29;20027;-68
2023/05/12 04:02:25;;;;;;;2.38;0.50;;;;;;;19.29;51.62;99330.31;4934242;29;20081;-71
2023/05/12 04:04:50;;;;;;;1.48;0.40;;;;;;;19.29;51.96;99332.09;4934103;29;20023;-70
2023/05/12 04:07:16;;;;;;;1.10;0.40;;;;;;;19.28;51.88;99331.22;4933735;29;20028;-71
2023/05/12 04:09:42;;;;;;;1.40;0.50;;;;;;;19.27;51.80;99334.81;4933967;29;20032;-71
2023/05/12 04:12:08;;;;;;;1.73;0.57;;;;;;;19.26;51.80;99333.13;4933862;28;20098;-68
2023/05/12 04:14:34;;;;;;;1.13;0.50;;;;;;;19.25;51.74;99336.72;4933483;29;20066;-71
2023/05/12 04:16:59;;;;;;;1.63;0.40;;;;;;;19.25;51.94;99330.56;4933844;29;20043;-71
2023/05/12 04:19:24;;;;;;;1.05;0.50;;;;;;;19.24;51.87;99332.38;4933832;28;20134;-70
2023/05/12 04:21:50;;;;;;;1.42;0.55;;;;;;;19.21;52.15;99332.53;4918486;29;20040;-71
2023/05/12 04:24:15;;;;;;;1.05;0.40;;;;;;;19.23;51.87;99325.34;4914829;29;20539;-70
2023/05/12 04:26:40;;;;;;;0.88;0.50;;;;;;;19.24;51.67;99332.38;4914805;29;20032;-70
2023/05/12 04:29:06;;;;;;;0.88;0.40;;;;;;;19.23;51.86;99335.94;4914577;29;20031;-70
2023/05/12 04:31:31;;;;;;;0.60;0.40;;;;;;;19.22;52.01;99328.09;4927405;28;20055;-71
2023/05/12 04:33:57;;;;;;;0.82;0.47;;;;;;;19.22;51.74;99334.22;4933792;28;20027;-70
2023/05/12 04:36:22;;;;;;;1.00;0.40;;;;;;;19.21;51.97;99332.53;4933651;28;20032;-71
2023/05/12 04:38:47;;;;;;;0.38;0.30;;;;;;;19.19;52.04;99334.41;4933581;28;20074;-71
2023/05/12 04:41:13;;;;;;;1.73;0.70;;;;;;;19.19;51.83;99335.25;4922419;29;20028;-69
2023/05/12 04:43:38;;;;;;;1.52;0.50;;;;;;;19.21;51.99;99335.16;4914401;29;20048;-71
2023/05/12 04:46:04;;;;;;;1.25;0.70;;;;;;;19.18;51.96;99322.97;4914290;29;20494;-72
2023/05/12 04:48:29;;;;;;;0.52;0.40;;;;;;;19.17;52.02;99331.84;4914428;29;20040;-70
2023/05/12 04:50:58;;;;;;;2.05;0.50;;;;;;;19.17;51.85;99341.56;4929336;29;20433;-69
2023/05/12 04:53:23;;;;;;;1.10;0.50;;;;;;;19.18;51.95;99345.94;4933400;29;20032;-70
2023/05/12 04:55:50;;;;;;;1.65;0.75;;;;;;;19.16;51.92;99337.22;4933144;28;20035;-70
2023/05/12 04:58:15;;;;;;;2.72;0.47;;;;;;;19.16;51.87;99345.16;4932881;29;20030;-71
2023/05/12 05:00:41;;;;;;;1.45;0.40;;;;;;;19.17;51.91;99341.56;4933266;29;20028;-70
2023/05/12 05:03:06;;;;;;;0.57;0.40;;;;;;;19.17;51.91;99344.22;4933290;29;20046;-70
2023/05/12 05:05:32;;;;;;;1.85;0.65;;;;;;;19.16;51.96;99345.16;4933197;28;20024;-68
2023/05/12 05:07:57;;;;;;;2.42;0.70;;;;;;;19.16;52.04;99342.50;4933175;29;20071;-70
2023/05/12 05:10:23;;;;;;;1.13;0.52;;;;;;;19.14;52.06;99349.69;4930084;29;20020;-67
2023/05/12 05:12:48;;;;;;;1.65;0.60;;;;;;;19.14;51.91;99347.03;4913833;29;20513;-69
2023/05/12 05:15:14;;;;;;;1.55;0.55;;;;;;;19.13;51.92;99345.34;4914065;29;20035;-70
2023/05/12 05:17:39;;;;;;;1.95;0.70;;;;;;;19.12;51.92;99355.03;4914063;29;20502;-70
2023/05/12 05:20:06;;;;;;;0.73;0.32;;;;;;;19.12;51.85;99355.03;4914601;29;20035;-71
2023/05/12 05:22:31;;;;;;;0.95;0.47;;;;;;;19.09;52.23;99354.38;4933073;28;20028;-71
2023/05/12 05:24:57;;;;;;;1.17;0.60;;;;;;;19.09;51.99;99352.59;4932961;29;20075;-70
2023/05/12 05:27:22;;;;;;;1.27;0.63;;;;;;;19.07;52.04;99356.25;4932293;28;20044;-71
2023/05/12 05:29:48;;;;;;;2.75;0.63;;;;;;;19.07;52.05;99356.25;4929597;29;20022;-72
2023/05/12 05:32:14;;;;;;;2.60;0.80;;;;;;;19.07;51.91;99359.72;4915326;29;20032;-71
2023/05/12 05:34:39;;;;;;;1.98;0.70;;;;;;;19.08;52.25;99357.94;4913271;29;20055;-71
2023/05/12 05:37:05;;;;;;;6.95;1.33;;;;;;;19.09;52.99;99370.22;4913597;29;20099;-72
2023/05/12 05:39:31;;;;;;;6.20;1.85;;;;;;;19.09;54.09;99372.88;4913745;29;20044;-71
2023/05/12 05:41:56;;;;;;;7.63;1.95;;;;;;;19.10;54.95;99372.81;4927491;29;20032;-70
2023/05/12 05:44:23;;;;;;;5.50;1.55;;;;;;;19.13;54.25;99366.50;4931285;28;20032;-71
2023/05/12 05:46:49;;;;;;;20.63;2.50;;;;;;;19.13;54.18;99366.50;4931694;28;20032;-71
2023/05/12 05:49:15;;;;;;;10.30;1.70;;;;;;;19.13;54.17;99363.84;4931616;28;20644;-71
2023/05/12 05:51:40;;;;;;;4.43;1.48;;;;;;;19.14;53.76;99368.19;4931613;29;20454;-72
2023/05/12 05:54:05;;;;;;;6.05;1.52;;;;;;;19.15;54.10;99364.59;4931923;28;20050;-71
2023/05/12 05:56:32;;;;;;;11.95;2.20;;;;;;;19.15;53.96;99369.91;4921165;29;20102;-71
2023/05/12 05:59:01;;;;;;;6.30;1.40;;;;;;;19.15;53.93;99370.75;4920291;29;20039;-71
2023/05/12 06:01:26;;;;;;;6.80;1.52;;;;;;;19.15;53.76;99375.19;4926432;29;20031;-71
2023/05/12 06:03:52;;;;;;;5.65;1.30;;;;;;;19.15;53.79;99369.91;4914980;29;20524;-71
2023/05/12 06:06:17;;;;;;;6.38;2.03;;;;;;;19.14;53.70;99374.31;4932189;29;20115;-71
2023/05/12 06:08:43;;;;;;;6.07;1.35;;;;;;;19.14;53.65;99369.03;4915186;29;20383;-71
2023/05/12 06:11:08;;;;;;;8.95;1.70;;;;;;;19.13;53.66;99372.63;4931987;29;20039;-70
2023/05/12 06:13:35;;;;;;;8.65;1.67;;;;;;;19.12;53.93;99370.09;4932351;29;20106;-71
2023/05/12 06:16:00;;;;;;;5.38;1.30;;;;;;;19.13;53.81;99366.50;4931860;29;20038;-71
2023/05/12 06:18:25;;;;;;;5.60;1.30;;;;;;;19.13;53.67;99366.50;4932220;28;20023;-69
2023/05/12 06:20:51;;;;;;;8.48;1.90;;;;;;;19.13;53.73;99366.50;4928121;29;20095;-71
2023/05/12 06:23:16;;;;;;;6.85;1.67;;;;;;;19.13;53.47;99361.19;4912907;29;20024;-71
2023/05/12 06:25:42;;;;;;;6.07;1.40;;;;;;;19.13;53.46;99363.84;4912591;29;20024;-72
2023/05/12 06:28:07;;;;;;;3.20;1.15;;;;;;;19.12;53.58;99359.50;4912195;29;20490;-70
2023/05/12 06:30:33;;;;;;;3.35;1.00;;;;;;;19.10;53.54;99371.94;4913189;29;20024;-70
2023/05/12 06:32:59;;;;;;;5.05;1.38;;;;;;;19.09;53.53;99365.81;4913068;29;20501;-69
2023/05/12 06:35:24;;;;;;;2.55;1.02;;;;;;;19.09;53.56;99364.94;4912818;29;20021;-70
2023/05/12 06:37:50;;;;;;;5.57;1.40;;;;;;;19.07;53.65;99364.19;4913129;29;20067;-71
2023/05/12 06:40:16;;;;;;;2.63;1.35;;;;;;;19.07;53.67;99364.19;4912727;29;20035;-68
2023/05/12 06:42:41;;;;;;;5.38;1.60;;;;;;;19.06;53.49;99363.31;4912953;29;20025;-71
2023/05/12 06:45:08;;;;;;;3.40;1.17;;;;;;;19.07;53.59;99366.84;4912932;29;20056;-71
2023/05/12 06:47:33;;;;;;;3.30;1.33;;;;;;;19.07;53.35;99364.19;4912790;29;20020;-70
2023/05/12 06:49:59;;;;;;;5.47;1.38;;;;;;;19.05;53.43;99365.09;4920218;29;20066;-70
2023/05/12 06:52:24;;;;;;;7.03;1.60;;;;;;;19.04;53.30;99367.84;4931580;29;20020;-70
2023/05/12 06:54:50;;;;;;;3.25;1.05;;;;;;;19.07;53.45;99369.47;4931107;29;20081;-70
2023/05/12 06:57:15;;;;;;;3.30;1.20;;;;;;;19.02;53.34;99375.81;4931672;29;20024;-71
2023/05/12 06:59:41;;;;;;;4.30;1.30;;;;;;;19.01;53.20;99379.41;4931621;29;20579;-71
2023/05/12 07:02:06;;;;;;;4.50;1.58;;;;;;;19.02;53.34;99381.13;4914625;28;20039;-71
2023/05/12 07:04:32;;;;;;;5.53;2.25;;;;;;;19.00;53.40;99375.06;4933256;28;20039;-71
2023/05/12 07:06:57;;;;;;;2.75;1.10;;;;;;;19.01;53.24;99389.13;4934925;29;20497;-71
2023/05/12 07:09:23;;;;;;;2.67;1.33;;;;;;;18.98;53.55;99382.22;4934381;28;20024;-71
2023/05/12 07:11:48;;;;;;;2.80;1.08;;;;;;;19.00;53.42;99383.00;4924497;28;20032;-72
2023/05/12 07:14:14;;;;;;;5.50;1.63;;;;;;;18.98;53.45;99379.56;4915872;29;20055;-71
2023/05/12 07:16:39;;;;;;;3.90;1.40;;;;;;;19.00;53.26;99377.72;4915967;29;20070;-70
2023/05/12 07:19:07;;;;;;;4.55;1.10;;;;;;;18.99;53.46;99385.72;4914651;29;20521;-71
2023/05/12 07:21:33;;;;;;;7.43;1.52;;;;;;;19.00;53.22;99392.72;4915908;29;20028;-71
2023/05/12 07:23:58;;;;;;;4.78;1.25;;;;;;;19.00;53.41;99387.41;4915233;29;20025;-71
2023/05/12 07:26:24;;;;;;;4.78;1.67;;;;;;;18.97;53.30;99392.84;4915567;29;20394;-71
2023/05/12 07:28:49;;;;;;;3.30;1.10;;;;;;;18.97;53.34;99393.72;4915592;29;20039;-70
2023/05/12 07:31:14;;;;;;;4.20;1.58;;;;;;;18.98;53.46;99398.06;4915810;29;20035;-72
2023/05/12 07:33:40;;;;;;;4.50;1.50;;;;;;;18.98;53.41;99392.78;4915597;29;20033;-71
2023/05/12 07:36:07;;;;;;;3.60;1.40;;;;;;;18.97;53.37;99393.72;4915358;29;20041;-71
2023/05/12 07:38:33;;;;;;;3.92;1.40;;;;;;;19.00;53.15;99393.56;4915160;29;20130;-72
2023/05/12 07:40:59;;;;;;;5.55;1.50;;;;;;;19.00;53.13;99398.88;4915438;29;20028;-71
2023/05/12 07:43:24;;;;;;;5.45;1.38;;;;;;;18.98;53.35;99390.13;4931491;28;20034;-71
2023/05/12 07:45:50;;;;;;;4.18;1.63;;;;;;;18.99;53.25;99391.00;4934176;29;20036;-71
2023/05/12 07:48:16;;;;;;;5.78;1.90;;;;;;;18.99;53.15;99391.84;4928225;29;20550;-71
2023/05/12 07:50:41;;;;;;;4.80;1.73;;;;;;;19.00;53.01;99382.13;4934165;28;20052;-71
2023/05/12 07:53:10;;;;;;;7.32;2.05;;;;;;;19.01;53.34;99383.84;4933734;28;20086;-73
2023/05/12 07:55:35;;;;;;;3.28;1.40;;;;;;;18.99;53.09;99381.25;4934067;28;20067;-70
2023/05/12 07:58:01;;;;;;;3.20;1.40;;;;;;;19.00;53.32;99377.72;4933931;29;20106;-72
2023/05/12 08:00:26;;;;;;;6.53;1.65;;;;;;;19.00;53.35;99383.00;4934511;29;20031;-71
2023/05/12 08:02:52;;;;;;;5.57;1.88;;;;;;;19.00;53.59;99383.00;4934288;29;20024;-71
2023/05/12 08:05:18;;;;;;;5.75;2.15;;;;;;;19.04;53.63;99381.91;4916937;29;20024;-70
2023/05/12 08:07:44;;;;;;;6.28;1.50;;;;;;;19.04;53.50;99395.13;4916756;29;20043;-72
2023/05/12 08:10:12;;;;;;;6.00;1.63;;;;;;;19.00;53.52;99388.28;4934112;29;20042;-70
2023/05/12 08:12:39;;;;;;;5.57;1.50;;;;;;;19.02;53.78;99391.69;4934017;29;20028;-71
2023/05/12 08:15:06;;;;;;;8.27;1.70;;;;;;;19.01;53.74;99390.00;4933686;29;20030;-71
2023/05/12 08:17:31;;;;;;;7.03;1.60;;;;;;;19.03;53.39;99390.78;4933890;28;20752;-71
2023/05/12 08:19:56;;;;;;;7.80;1.77;;;;;;;19.04;53.60;99389.84;4934037;28;20035;-71
2023/05/12 08:22:22;;;;;;;6.55;1.85;;;;;;;19.05;53.45;99391.53;4933668;29;20111;-71
2023/05/12 08:24:47;;;;;;;4.60;1.52;;;;;;;19.05;53.54;99388.91;4931128;28;20028;-71
2023/05/12 08:27:13;;;;;;;5.55;1.75;;;;;;;19.03;53.57;99393.44;4923855;29;20036;-71
2023/05/12 08:29:38;;;;;;;6.57;2.22;;;;;;;19.04;53.69;99400.41;4933720;29;20038;-71
2023/05/12 08:32:04;;;;;;;5.35;2.08;;;;;;;19.05;53.44;99396.84;4933496;29;20028;-72
2023/05/12 08:34:29;;;;;;;5.90;1.88;;;;;;;19.09;53.38;99394.91;4933629;29;20486;-72
2023/05/12 08:36:55;;;;;;;5.35;1.73;;;;;;;19.08;53.48;99397.63;4933353;29;20035;-71
2023/05/12 08:39:21;;;;;;;5.82;1.83;;;;;;;19.06;53.44;99397.69;4916436;29;20046;-70
2023/05/12 08:42:08;;;;;;;4.45;2.05;;;;;;;19.07;53.43;99398.56;4933379;29;20493;-71
2023/05/12 08:44:35;;;;;;;6.50;2.17;;;;;;;19.09;53.38;99397.53;4916546;29;20393;-70
2023/05/12 08:47:04;;;;;;;5.57;1.85;;;;;;;19.11;53.33;99394.78;4933268;29;20020;-71
2023/05/12 08:49:31;;;;;;;4.22;1.65;;;;;;;19.10;53.58;99393.09;4933539;29;20027;-71
2023/05/12 08:52:00;;;;;;;5.93;1.85;;;;;;;19.11;53.41;99394.78;4932947;29;20032;-71
2023/05/12 08:54:27;;;;;;;8.18;2.25;;;;;;;19.11;53.39;99394.78;4933081;29;20036;-71
2023/05/12 08:56:53;;;;;;;5.03;1.65;;;;;;;19.09;53.30;99391.38;4933470;29;20055;-70
2023/05/12 08:59:19;;;;;;;6.10;2.28;;;;;;;19.08;53.49;99390.53;4933458;29;20490;-71
2023/05/12 09:01:46;;;;;;;4.95;1.90;;;;;;;19.09;53.64;99386.97;4916403;29;20081;-69
2023/05/12 09:04:14;;;;;;;8.80;2.13;;;;;;;19.10;53.46;99398.38;4933298;29;20493;-71
2023/05/12 09:06:40;;;;;;;4.55;1.77;;;;;;;19.11;53.20;99389.50;4932930;29;20120;-71
2023/05/12 09:09:06;;;;;;;5.22;1.95;;;;;;;19.12;53.44;99391.25;4914228;29;20032;-70
2023/05/12 09:11:32;;;;;;;5.20;1.73;;;;;;;19.15;53.13;99397.22;4913901;29;20027;-71
2023/05/12 09:13:59;;;;;;;4.63;1.58;;;;;;;19.13;53.38;99399.06;4914148;29;20056;-72
2023/05/12 09:16:28;;;;;;;5.65;1.98;;;;;;;19.11;53.21;99406.25;4914155;29;20032;-70
2023/05/12 09:18:58;;;;;;;5.25;1.70;;;;;;;19.16;53.13;99398.03;4919911;29;20074;-71
2023/05/12 09:21:25;;;;;;;3.88;1.50;;;;;;;19.19;53.25;99397.91;4932984;29;20055;-70
2023/05/12 09:24:02;;;;;;;5.07;1.58;;;;;;;19.23;52.97;99401.22;4932958;29;20039;-70
2023/05/12 09:26:27;;;;;;;5.82;1.83;;;;;;;19.23;53.24;99398.56;4932376;29;20032;-70
2023/05/12 09:28:55;;;;;;;5.97;1.80;;;;;;;19.22;52.78;99397.72;4932802;29;20408;-70
2023/05/12 09:31:22;;;;;;;5.78;2.00;;;;;;;19.26;53.10;99399.25;4932892;29;20401;-71
2023/05/12 09:33:49;;;;;;;4.13;1.58;;;;;;;19.26;53.04;99398.41;4932436;28;20497;-71
2023/05/12 09:36:20;;;;;;;6.18;1.80;;;;;;;19.25;52.75;99396.69;4932811;29;20024;-71
2023/05/12 09:38:45;;;;;;;4.03;1.80;;;;;;;19.26;52.92;99403.69;4932869;29;20111;-70
2023/05/12 09:41:11;;;;;;;5.03;1.80;;;;;;;19.28;52.71;99397.38;4932628;29;20118;-71
2023/05/12 09:43:43;;;;;;;4.85;1.75;;;;;;;19.30;52.72;99400.81;4932680;28;20119;-71
2023/05/12 09:46:08;;;;;;;5.60;2.20;;;;;;;19.30;52.69;99402.59;4932511;28;20111;-71
2023/05/12 09:48:34;;;;;;;4.80;1.80;;;;;;;19.27;52.96;99389.53;4915188;29;20028;-71
2023/05/12 09:51:00;;;;;;;5.80;1.80;;;;;;;19.29;52.71;99401.75;4932360;29;20485;-71
2023/05/12 09:53:25;;;;;;;4.13;1.92;;;;;;;19.29;52.86;99399.09;4932447;28;20039;-69
2023/05/12 09:55:51;;;;;;;6.32;2.15;;;;;;;19.30;52.62;99395.53;4932454;29;20032;-71
2023/05/12 09:58:18;;;;;;;5.35;2.15;;;;;;;19.32;52.57;99401.56;4932545;29;20032;-71
2023/05/12 10:00:44;;;;;;;4.43;2.05;;;;;;;19.33;52.75;99394.50;4932241;29;20027;-71
2023/05/12 10:03:13;;;;;;;4.63;1.80;;;;;;;19.32;52.77;99391.00;4915057;29;20036;-71
2023/05/12 10:05:52;;;;;;;3.80;1.63;;;;;;;19.33;52.82;99394.50;4932260;28;20563;-70
2023/05/12 10:08:32;;;;;;;5.72;2.08;;;;;;;19.33;52.78;99394.50;4932449;29;20054;-71
2023/05/12 10:11:00;;;;;;;5.55;1.75;;;;;;;19.34;52.84;99397.97;4932241;29;20028;-71
2023/05/12 10:13:26;;;;;;;6.28;2.00;;;;;;;19.32;52.89;99398.06;4932317;29;20039;-70
2023/05/12 10:15:55;;;;;;;3.90;1.67;;;;;;;19.32;52.75;99398.06;4932112;29;20032;-71
2023/05/12 10:18:21;;;;;;;3.47;1.52;;;;;;;19.37;52.74;99403.13;4932057;29;20027;-70
2023/05/12 10:20:47;;;;;;;3.58;1.77;;;;;;;19.35;52.63;99397.91;4932244;29;20032;-71
2023/05/12 10:23:16;;;;;;;4.55;1.60;;;;;;;19.35;52.62;99397.03;4932141;29;20039;-70
2023/05/12 10:25:42;;;;;;;5.75;2.17;;;;;;;19.35;52.81;99395.25;4932061;29;20028;-71
2023/05/12 10:28:09;;;;;;;3.00;1.42;;;;;;;19.37;52.91;99385.44;4931999;29;20063;-71
2023/05/12 10:30:36;;;;;;;5.15;1.70;;;;;;;19.35;52.89;99382.03;4931813;28;20027;-71
2023/05/12 10:33:01;;;;;;;4.70;2.00;;;;;;;19.35;52.59;99378.50;4931640;28;20035;-71
2023/05/12 10:35:35;;;;;;;4.53;1.77;;;;;;;19.39;52.62;99377.41;4931869;28;20370;-70
2023/05/12 10:38:08;;;;;;;4.53;1.83;;;;;;;19.38;52.85;99375.72;4931834;28;20058;-72
2023/05/12 10:40:34;;;;;;;3.90;1.60;;;;;;;19.40;52.86;99376.47;4949999;28;20046;-71
2023/05/12 10:43:00;;;;;;;3.58;1.67;;;;;;;19.40;52.83;99379.13;4935165;28;20023;-70
2023/05/12 10:45:25;;;;;;;2.50;1.70;;;;;;;19.40;52.65;99379.13;4935202;29;20074;-70
2023/05/12 10:47:51;;;;;;;5.50;2.00;;;;;;;19.41;52.52;99375.53;4915161;29;20506;-69
2023/05/12 10:50:27;;;;;;;4.30;1.60;;;;;;;19.36;52.72;99377.59;4926166;29;20462;-70
2023/05/12 10:52:56;;;;;;;4.05;2.00;;;;;;;19.38;52.67;99371.28;4935202;29;20362;-70
2023/05/12 10:55:42;;;;;;;3.65;1.95;;;;;;;19.38;52.90;99370.41;4934889;28;20035;-70
2023/05/12 10:58:11;;;;;;;5.80;2.50;;;;;;;19.39;52.65;99367.69;4935241;29;20042;-71
2023/05/12 11:00:49;;;;;;;3.92;1.85;;;;;;;19.39;52.84;99358.91;4934767;29;20107;-70
2023/05/12 11:03:21;;;;;;;4.70;2.20;;;;;;;19.40;52.48;99357.94;4934877;29;20035;-71
2023/05/12 11:05:58;;;;;;;5.20;2.22;;;;;;;19.39;52.62;99358.91;4934713;29;20034;-69
2023/05/12 11:08:23;;;;;;;;;;;;;;;19.43;52.58;99355.16;4935265;29;20032;-70
2023/05/12 11:10:50;;;;;;;7.90;2.57;;;;;;;19.43;52.51;99347.22;4933304;29;19923;-71
2023/05/12 11:13:16;;;;;;;5.85;2.17;;;;;;;19.44;52.67;99348.91;4917872;29;20059;-69
2023/05/12 11:15:43;;;;;;;4.68;2.10;;;;;;;19.44;52.76;99348.91;4914338;29;20032;-70
2023/05/12 11:18:08;;;;;;;6.22;2.20;;;;;;;19.44;52.68;99338.31;4917476;29;20412;-71
2023/05/12 11:20:34;;;;;;;4.82;2.10;;;;;;;19.45;52.69;99340.88;4934847;29;20058;-71
2023/05/12 11:23:00;;;;;;;21.95;11.10;;;;;;;19.47;52.74;99337.31;4934771;28;20134;-71
2023/05/12 11:25:27;;;;;;;24.77;9.88;;;;;;;19.46;52.80;99336.44;4934705;28;20032;-70
2023/05/12 11:27:53;;;;;;;12.48;4.75;;;;;;;19.47;52.73;99332.88;4921792;29;20032;-70
2023/05/12 11:30:18;;;;;;;7.68;2.58;;;;;;;19.47;52.63;99335.53;4915512;29;20375;-71